Time;durP1;ratioP1;P1;durP2;ratioP2;P2;SDS_P1;SDS_P2;PMS_P1;PMS_P2;Temp;Humidity;BMP_temperature;BMP_pressure;BME280_temperature;BME280_humidity;BME280_pressure;Samples;Min_cycle;Max_cycle;Signal;HPM_P1;HPM_P2
2023/12/14 00:00:46;;;;;;;4.57;1.83;;;14.20;99.90;;;;;;4965583;28;20042;-34
2023/12/14 00:03:11;;;;;;;9.02;2.17;;;14.40;99.90;;;;;;4967828;28;20053;-38
2023/12/14 00:05:37;;;;;;;6.10;1.88;;;14.30;99.90;;;;;;4967524;28;20038;-34
2023/12/14 00:08:03;;;;;;;4.57;1.55;;;14.40;99.90;;;;;;4969100;28;20379;-35
2023/12/14 00:10:28;;;;;;;5.20;1.90;;;14.20;99.90;;;;;;4970208;28;20042;-37
2023/12/14 00:12:55;;;;;;;5.80;2.40;;;14.50;99.90;;;;;;4973286;28;20077;-34
2023/12/14 00:15:21;;;;;;;5.35;2.05;;;14.20;99.90;;;;;;4970318;28;20081;-37
2023/12/14 00:17:46;;;;;;;7.50;1.92;;;14.90;99.90;;;;;;4972701;28;20066;-33
2023/12/14 00:20:12;;;;;;;5.47;1.92;;;14.20;99.90;;;;;;4971628;28;20192;-34
2023/12/14 00:22:38;;;;;;;7.88;2.33;;;13.70;99.90;;;;;;4973193;28;20390;-34
2023/12/14 00:25:05;;;;;;;5.55;2.00;;;13.80;99.90;;;;;;4972233;28;20045;-34
2023/12/14 00:27:30;;;;;;;4.65;1.70;;;13.60;99.90;;;;;;4972453;28;20093;-37
2023/12/14 00:29:56;;;;;;;4.82;1.83;;;15.30;99.90;;;;;;4972238;28;20046;-34
2023/12/14 00:32:22;;;;;;;5.22;1.75;;;14.10;99.90;;;;;;4983075;28;20081;-34
2023/12/14 00:34:48;;;;;;;5.05;1.80;;;14.30;99.90;;;;;;4972758;28;20042;-37
2023/12/14 00:37:14;;;;;;;4.22;1.60;;;14.20;99.90;;;;;;4984218;28;20042;-34
2023/12/14 00:39:40;;;;;;;5.50;1.90;;;14.10;99.90;;;;;;4971516;28;20118;-34
2023/12/14 00:42:06;;;;;;;4.78;1.77;;;14.00;99.90;;;;;;4972389;28;20114;-36
2023/12/14 00:44:31;;;;;;;5.18;1.90;;;14.10;99.90;;;;;;4971496;28;20034;-36
2023/12/14 00:46:58;;;;;;;4.72;1.85;;;14.20;99.90;;;;;;4972565;28;20068;-38
2023/12/14 00:49:24;;;;;;;6.25;1.70;;;14.00;99.90;;;;;;4971672;28;20410;-35
2023/12/14 00:51:49;;;;;;;5.15;1.50;;;14.40;99.90;;;;;;4972894;28;20027;-39
2023/12/14 00:54:15;;;;;;;5.63;2.13;;;14.00;99.90;;;;;;4972292;28;20038;-39
2023/12/14 00:56:41;;;;;;;4.38;1.70;;;14.20;99.90;;;;;;4971348;28;20090;-35
2023/12/14 00:59:06;;;;;;;5.90;1.80;;;13.90;99.90;;;;;;4970782;28;20041;-36
2023/12/14 01:01:32;;;;;;;4.00;1.60;;;14.10;99.90;;;;;;4970900;28;20047;-34
2023/12/14 01:03:59;;;;;;;4.78;1.83;;;14.30;99.90;;;;;;4971461;28;20031;-35
2023/12/14 01:06:25;;;;;;;4.15;1.50;;;14.00;99.90;;;;;;4970902;28;20120;-35
2023/12/14 01:08:50;;;;;;;6.03;2.03;;;14.30;99.90;;;;;;4970799;28;20572;-36
2023/12/14 01:11:16;;;;;;;4.85;1.70;;;13.50;99.90;;;;;;4970076;28;20089;-35
2023/12/14 01:13:42;;;;;;;5.25;2.00;;;14.10;99.90;;;;;;4972043;28;20105;-36
2023/12/14 01:16:07;;;;;;;4.93;1.60;;;14.20;99.90;;;;;;4970370;28;20105;-36
2023/12/14 01:18:34;;;;;;;4.30;1.50;;;;;;;;;;4970112;28;20403;-35
2023/12/14 01:21:00;;;;;;;4.15;1.45;;;13.90;99.90;;;;;;4970590;28;20046;-36
2023/12/14 01:23:25;;;;;;;4.35;1.77;;;14.80;99.90;;;;;;4971624;28;20046;-34
2023/12/14 01:25:51;;;;;;;6.53;2.22;;;13.90;99.90;;;;;;4971932;28;20042;-35
2023/12/14 01:28:17;;;;;;;5.75;1.92;;;13.40;99.90;;;;;;4970843;28;20050;-36
2023/12/14 01:30:42;;;;;;;3.90;1.30;;;13.90;99.90;;;;;;4966871;28;20110;-35
2023/12/14 01:33:08;;;;;;;5.82;1.65;;;14.30;99.90;;;;;;4984598;28;20046;-34
2023/12/14 01:35:33;;;;;;;6.05;1.45;;;14.10;99.90;;;;;;4968745;28;20038;-37
2023/12/14 01:37:59;;;;;;;5.32;1.60;;;14.00;99.90;;;;;;4971193;28;20042;-35
2023/12/14 01:40:25;;;;;;;4.30;1.50;;;14.30;99.90;;;;;;4970088;28;20125;-38
2023/12/14 01:42:50;;;;;;;5.25;1.67;;;13.50;99.90;;;;;;4969138;28;20026;-37
2023/12/14 01:45:16;;;;;;;4.20;1.50;;;13.40;99.90;;;;;;4967478;28;20074;-35
2023/12/14 01:47:44;;;;;;;4.55;1.90;;;14.20;99.90;;;;;;4965067;28;20046;-34
2023/12/14 01:50:10;;;;;;;4.43;1.60;;;13.90;99.90;;;;;;4967187;28;20086;-34
2023/12/14 01:52:36;;;;;;;4.35;1.33;;;13.80;99.90;;;;;;4968826;28;20097;-36
2023/12/14 01:55:02;;;;;;;4.43;1.48;;;13.60;99.90;;;;;;4969285;28;20031;-39
2023/12/14 01:57:28;;;;;;;3.90;1.48;;;13.90;99.90;;;;;;4968505;28;20398;-37
2023/12/14 01:59:54;;;;;;;5.00;1.70;;;13.90;99.90;;;;;;4969754;28;20054;-35
2023/12/14 02:02:19;;;;;;;5.35;1.63;;;13.40;99.90;;;;;;4970788;28;20453;-35
2023/12/14 02:04:45;;;;;;;4.60;1.42;;;14.10;99.90;;;;;;4964844;28;20071;-35
2023/12/14 02:07:10;;;;;;;4.47;1.60;;;13.90;99.90;;;;;;4969479;28;20031;-39
2023/12/14 02:09:36;;;;;;;3.92;1.48;;;14.20;99.90;;;;;;4970079;28;20049;-37
2023/12/14 02:12:02;;;;;;;4.93;1.45;;;14.20;99.90;;;;;;4967478;28;20039;-38
2023/12/14 02:14:27;;;;;;;4.38;1.58;;;14.20;99.90;;;;;;4967319;28;20035;-35
2023/12/14 02:16:53;;;;;;;4.78;1.40;;;13.90;99.90;;;;;;4968265;28;20454;-34
2023/12/14 02:19:19;;;;;;;5.90;1.65;;;13.70;99.90;;;;;;4967870;28;20042;-35
2023/12/14 02:21:44;;;;;;;5.53;1.77;;;14.00;99.90;;;;;;4968473;28;20049;-35
2023/12/14 02:24:10;;;;;;;3.85;1.20;;;13.60;99.90;;;;;;4970646;28;20051;-35
2023/12/14 02:26:35;;;;;;;4.97;1.73;;;14.00;99.90;;;;;;4969344;28;20031;-36
2023/12/14 02:29:01;;;;;;;3.90;1.50;;;14.60;99.90;;;;;;4969216;28;20034;-36
2023/12/14 02:31:26;;;;;;;4.13;1.52;;;13.80;99.90;;;;;;4964722;28;20111;-38
2023/12/14 02:33:52;;;;;;;5.05;1.80;;;13.90;99.90;;;;;;4970895;28;20042;-35
2023/12/14 02:36:18;;;;;;;4.07;1.60;;;13.80;99.90;;;;;;4969028;28;20482;-39
2023/12/14 02:38:43;;;;;;;3.92;1.65;;;13.50;99.90;;;;;;4968223;28;20054;-34
2023/12/14 02:41:10;;;;;;;6.07;1.60;;;13.60;99.90;;;;;;4969931;28;20666;-35
2023/12/14 02:43:37;;;;;;;5.70;1.73;;;13.10;99.90;;;;;;4967529;28;20043;-35
2023/12/14 02:46:03;;;;;;;3.67;1.50;;;14.00;99.90;;;;;;4968717;28;20031;-35
2023/12/14 02:48:29;;;;;;;3.55;1.50;;;13.70;99.90;;;;;;4967383;28;20046;-34
2023/12/14 02:50:55;;;;;;;4.65;1.52;;;14.00;99.90;;;;;;4969358;28;20050;-40
2023/12/14 02:53:21;;;;;;;3.88;1.40;;;14.90;99.90;;;;;;4968787;28;20046;-37
2023/12/14 02:55:46;;;;;;;4.35;1.20;;;13.80;99.90;;;;;;4982385;28;20050;-35
2023/12/14 02:58:12;;;;;;;4.28;1.45;;;13.30;99.90;;;;;;4967805;28;20031;-35
2023/12/14 03:00:38;;;;;;;4.75;1.50;;;14.10;99.90;;;;;;4968742;28;20162;-36
2023/12/14 03:03:03;;;;;;;4.55;1.70;;;13.30;99.90;;;;;;4969105;28;20035;-36
2023/12/14 03:05:29;;;;;;;5.55;1.45;;;14.10;99.90;;;;;;4966821;28;20441;-35
2023/12/14 03:07:54;;;;;;;4.70;1.80;;;13.90;99.90;;;;;;4968816;28;20035;-37
2023/12/14 03:10:20;;;;;;;5.20;1.38;;;14.30;99.90;;;;;;4963453;28;20092;-35
2023/12/14 03:12:46;;;;;;;4.20;1.40;;;13.60;99.90;;;;;;4966334;28;20030;-34
2023/12/14 03:15:11;;;;;;;5.80;1.50;;;14.10;99.90;;;;;;4966913;28;20129;-37
2023/12/14 03:17:37;;;;;;;3.90;1.30;;;14.10;99.90;;;;;;4962463;28;20482;-38
2023/12/14 03:20:05;;;;;;;3.30;1.33;;;13.90;99.90;;;;;;4964489;28;20426;-39
2023/12/14 03:22:30;;;;;;;4.22;1.40;;;14.10;99.90;;;;;;4962975;28;20458;-37
2023/12/14 03:24:56;;;;;;;4.28;1.40;;;13.40;99.90;;;;;;4965568;28;20134;-36
2023/12/14 03:27:23;;;;;;;4.75;1.75;;;14.30;99.90;;;;;;4968523;28;20035;-35
2023/12/14 03:29:48;;;;;;;5.43;1.50;;;14.30;99.90;;;;;;4965933;28;20039;-37
2023/12/14 03:32:14;;;;;;;3.88;1.58;;;14.00;99.90;;;;;;4969676;28;20034;-35
2023/12/14 03:34:40;;;;;;;4.53;1.45;;;14.10;99.90;;;;;;4967858;28;20130;-34
2023/12/14 03:37:06;;;;;;;3.88;1.45;;;14.40;99.90;;;;;;4967998;28;20042;-36
2023/12/14 03:39:32;;;;;;;5.95;1.60;;;14.20;99.90;;;;;;4968970;28;20042;-34
2023/12/14 03:41:57;;;;;;;5.20;1.73;;;14.00;99.90;;;;;;4969577;28;20044;-37
2023/12/14 03:44:24;;;;;;;4.78;1.60;;;13.80;99.90;;;;;;4963031;28;20402;-36
2023/12/14 03:46:50;;;;;;;5.38;1.50;;;14.40;99.90;;;;;;4967242;28;20473;-35
2023/12/14 03:49:15;;;;;;;4.07;1.40;;;14.20;99.90;;;;;;4967361;28;20109;-34
2023/12/14 03:51:41;;;;;;;4.97;1.42;;;13.70;99.90;;;;;;4950832;28;20486;-35
2023/12/14 03:54:06;;;;;;;4.25;1.50;;;13.60;99.90;;;;;;4966137;28;20046;-38
2023/12/14 03:56:32;;;;;;;4.13;1.40;;;14.60;99.90;;;;;;4966737;28;20042;-39
2023/12/14 03:58:58;;;;;;;3.85;1.20;;;14.10;99.90;;;;;;4967789;28;20038;-34
2023/12/14 04:01:23;;;;;;;3.33;1.10;;;13.90;99.90;;;;;;4967255;28;20071;-34
2023/12/14 04:03:49;;;;;;;4.13;1.30;;;14.50;99.90;;;;;;4965679;28;21310;-35
2023/12/14 04:06:15;;;;;;;4.80;1.75;;;13.90;99.90;;;;;;4963853;28;20054;-40
2023/12/14 04:08:41;;;;;;;3.97;1.58;;;14.00;99.90;;;;;;4965878;28;20046;-38
2023/12/14 04:11:08;;;;;;;5.25;1.42;;;14.20;99.90;;;;;;4968626;28;20054;-37
2023/12/14 04:13:34;;;;;;;3.75;1.40;;;14.10;99.90;;;;;;4966531;28;20109;-35
2023/12/14 04:15:59;;;;;;;3.72;1.20;;;14.30;99.90;;;;;;4967282;28;20043;-37
2023/12/14 04:18:26;;;;;;;3.75;1.27;;;14.40;99.90;;;;;;4965038;28;20046;-36
2023/12/14 04:20:51;;;;;;;5.40;1.50;;;14.30;99.90;;;;;;4966561;28;20688;-35
2023/12/14 04:23:17;;;;;;;4.70;1.35;;;14.60;99.90;;;;;;4967515;28;20125;-35
2023/12/14 04:25:43;;;;;;;4.22;1.27;;;14.40;99.90;;;;;;4968185;28;20070;-35
2023/12/14 04:28:09;;;;;;;4.07;1.25;;;14.60;99.90;;;;;;4968064;28;20066;-35
2023/12/14 04:30:34;;;;;;;3.78;1.38;;;14.20;99.90;;;;;;4961575;28;20053;-37
2023/12/14 04:33:00;;;;;;;4.22;1.33;;;14.20;99.90;;;;;;4961673;28;20441;-37
2023/12/14 04:35:25;;;;;;;3.90;1.60;;;14.00;99.90;;;;;;4968643;28;20089;-35
2023/12/14 04:37:51;;;;;;;5.20;1.30;;;13.90;99.90;;;;;;4968238;28;20727;-35
2023/12/14 04:40:17;;;;;;;7.82;1.80;;;14.60;99.90;;;;;;4967496;28;20517;-38
2023/12/14 04:42:42;;;;;;;5.82;1.45;;;14.30;99.90;;;;;;4967619;28;20513;-35
2023/12/14 04:45:12;;;;;;;3.88;1.52;;;14.20;99.90;;;;;;4965104;28;20043;-38
2023/12/14 04:47:38;;;;;;;4.18;1.52;;;14.20;99.90;;;;;;4965886;28;20090;-34
2023/12/14 04:50:04;;;;;;;4.50;1.63;;;14.30;99.90;;;;;;4968023;28;20520;-38
2023/12/14 04:52:30;;;;;;;4.22;1.50;;;14.20;99.90;;;;;;4967248;28;20482;-35
2023/12/14 04:54:55;;;;;;;3.42;1.40;;;14.20;99.90;;;;;;4966956;28;20046;-36
2023/12/14 04:57:21;;;;;;;4.60;1.60;;;14.00;99.90;;;;;;4969869;28;20749;-38
2023/12/14 04:59:47;;;;;;;4.45;1.77;;;15.40;99.90;;;;;;4969050;28;20045;-35
2023/12/14 05:02:12;;;;;;;4.30;1.42;;;15.20;99.90;;;;;;4971178;28;20129;-34
2023/12/14 05:04:38;;;;;;;5.20;1.60;;;14.40;99.90;;;;;;4966568;28;20042;-37
2023/12/14 05:07:04;;;;;;;4.78;1.55;;;14.60;99.90;;;;;;4970330;28;20039;-37
2023/12/14 05:09:32;;;;;;;6.18;1.50;;;14.20;99.90;;;;;;4968741;28;20038;-34
2023/12/14 05:11:58;;;;;;;4.85;1.35;;;14.70;99.90;;;;;;4966420;28;20121;-35
2023/12/14 05:14:24;;;;;;;4.13;1.40;;;14.80;99.90;;;;;;4968756;28;20158;-40
2023/12/14 05:16:50;;;;;;;3.78;1.48;;;14.90;99.90;;;;;;4970769;28;20411;-34
2023/12/14 05:19:15;;;;;;;3.95;1.50;;;14.40;99.90;;;;;;4966956;28;20082;-34
2023/12/14 05:21:41;;;;;;;3.50;1.33;;;14.90;99.90;;;;;;4966154;28;20039;-39
2023/12/14 05:24:07;;;;;;;4.03;1.50;;;14.50;99.90;;;;;;4970892;28;20039;-37
2023/12/14 05:26:32;;;;;;;4.70;1.30;;;14.40;99.90;;;;;;4965864;28;20054;-34
2023/12/14 05:28:58;;;;;;;4.50;1.58;;;14.70;99.90;;;;;;4967505;28;20114;-35
2023/12/14 05:31:23;;;;;;;5.50;1.50;;;14.80;99.90;;;;;;4963473;28;20039;-40
2023/12/14 05:33:49;;;;;;;22.73;2.63;;;14.40;99.90;;;;;;4966016;28;20038;-41
2023/12/14 05:36:15;;;;;;;8.20;2.10;;;14.90;99.90;;;;;;4967906;28;20139;-38
2023/12/14 05:38:41;;;;;;;20.05;5.65;;;14.60;99.90;;;;;;4968676;28;20047;-38
2023/12/14 05:41:07;;;;;;;29.00;9.05;;;14.60;99.90;;;;;;4966045;28;20129;-36
2023/12/14 05:43:33;;;;;;;34.33;9.82;;;15.20;99.90;;;;;;4969422;28;20091;-37
2023/12/14 05:45:59;;;;;;;39.20;10.95;;;14.60;99.90;;;;;;4966642;28;20529;-36
2023/12/14 05:48:28;;;;;;;30.15;9.93;;;14.50;99.90;;;;;;4963541;28;20042;-34
2023/12/14 05:50:54;;;;;;;28.33;9.18;;;14.80;99.90;;;;;;4969448;28;20053;-37
2023/12/14 05:53:19;;;;;;;20.48;6.47;;;15.00;99.90;;;;;;4967478;28;20038;-38
2023/12/14 05:55:45;;;;;;;19.00;7.38;;;14.90;99.90;;;;;;4961240;28;20517;-37
2023/12/14 05:58:10;;;;;;;24.23;7.10;;;14.80;99.90;;;;;;4966214;28;20101;-34
2023/12/14 06:00:36;;;;;;;25.80;8.00;;;14.60;99.90;;;;;;4979714;28;20034;-35
2023/12/14 06:03:02;;;;;;;24.90;8.00;;;14.90;99.90;;;;;;4959682;28;20034;-40
2023/12/14 06:05:28;;;;;;;27.33;8.27;;;15.40;99.90;;;;;;4962591;28;20171;-38
2023/12/14 06:07:54;;;;;;;21.35;6.65;;;15.00;99.90;;;;;;4965286;28;20479;-37
2023/12/14 06:10:21;;;;;;;24.88;7.80;;;14.90;99.90;;;;;;4970682;28;20137;-36
2023/12/14 06:12:47;;;;;;;14.93;6.03;;;15.00;99.90;;;;;;4950909;28;20050;-35
2023/12/14 06:15:13;;;;;;;20.92;6.72;;;14.90;99.90;;;;;;4969715;28;20043;-35
2023/12/14 06:17:40;;;;;;;15.30;6.50;;;15.10;99.90;;;;;;4982219;28;20037;-35
2023/12/14 06:20:08;;;;;;;22.45;6.47;;;14.90;99.90;;;;;;4967111;28;20515;-35
2023/12/14 06:22:36;;;;;;;20.50;5.97;;;14.90;99.90;;;;;;4970851;28;20050;-34
2023/12/14 06:25:03;;;;;;;16.63;5.90;;;15.70;99.90;;;;;;4985351;28;20039;-35
2023/12/14 06:27:28;;;;;;;21.00;6.68;;;14.80;99.90;;;;;;4971862;28;20105;-37
2023/12/14 06:29:54;;;;;;;13.13;5.38;;;14.90;99.90;;;;;;4985349;28;20044;-35
2023/12/14 06:32:20;;;;;;;14.50;4.90;;;14.70;99.90;;;;;;4970503;28;20039;-35
2023/12/14 06:34:45;;;;;;;12.63;5.25;;;14.70;99.90;;;;;;4969867;28;20038;-35
2023/12/14 06:37:11;;;;;;;12.73;4.53;;;15.10;99.90;;;;;;4971129;28;20077;-38
2023/12/14 06:39:36;;;;;;;14.10;5.95;;;14.90;99.90;;;;;;4971048;28;20041;-37
2023/12/14 06:42:02;;;;;;;11.48;4.70;;;15.30;99.90;;;;;;4970771;28;20035;-37
2023/12/14 06:44:30;;;;;;;13.65;5.25;;;15.40;99.90;;;;;;4969545;28;20034;-35
2023/12/14 06:46:57;;;;;;;12.95;4.32;;;14.90;99.90;;;;;;4968563;28;20053;-36
2023/12/14 06:49:23;;;;;;;10.93;4.10;;;15.60;99.90;;;;;;4984031;28;20114;-34
2023/12/14 06:51:49;;;;;;;14.77;4.10;;;14.70;99.90;;;;;;4967193;28;20559;-35
2023/12/14 06:54:15;;;;;;;11.75;4.32;;;14.70;99.90;;;;;;4970511;28;20533;-34
2023/12/14 06:56:40;;;;;;;10.00;3.35;;;15.20;99.90;;;;;;4969553;28;20074;-35
2023/12/14 06:59:06;;;;;;;10.10;3.83;;;14.60;99.90;;;;;;4969819;28;20045;-35
2023/12/14 07:01:31;;;;;;;10.25;4.18;;;15.40;99.90;;;;;;4967734;28;20443;-36
2023/12/14 07:03:57;;;;;;;8.77;3.17;;;15.40;99.90;;;;;;4970309;28;20042;-35
2023/12/14 07:06:22;;;;;;;11.98;3.47;;;15.00;99.90;;;;;;4970356;28;20058;-38
2023/12/14 07:08:48;;;;;;;9.63;3.50;;;14.80;99.90;;;;;;4966757;28;20035;-36
2023/12/14 07:11:14;;;;;;;11.68;3.28;;;15.10;99.90;;;;;;4970363;28;20043;-35
2023/12/14 07:13:40;;;;;;;9.60;3.28;;;14.80;99.90;;;;;;4969098;28;20120;-35
2023/12/14 07:16:10;;;;;;;9.77;3.67;;;14.50;99.90;;;;;;4968904;28;20039;-35
2023/12/14 07:18:41;;;;;;;9.00;3.20;;;15.30;99.90;;;;;;4967632;28;20499;-36
2023/12/14 07:21:07;;;;;;;7.55;2.80;;;15.00;99.90;;;;;;4968606;28;20077;-35
2023/12/14 07:23:33;;;;;;;8.35;3.60;;;14.80;99.90;;;;;;4968597;28;20043;-35
2023/12/14 07:25:59;;;;;;;9.10;2.70;;;14.70;99.90;;;;;;4969657;28;20078;-35
2023/12/14 07:28:25;;;;;;;8.25;2.75;;;14.60;99.90;;;;;;4969743;28;20438;-35
2023/12/14 07:30:50;;;;;;;8.07;2.65;;;15.30;99.90;;;;;;4969172;28;20422;-38
2023/12/14 07:33:16;;;;;;;7.03;2.58;;;15.10;99.90;;;;;;4968935;28;20181;-37
2023/12/14 07:35:42;;;;;;;7.72;2.58;;;15.60;99.90;;;;;;4969687;28;20038;-36
2023/12/14 07:38:10;;;;;;;7.65;2.90;;;14.80;99.90;;;;;;4968006;28;20054;-36
2023/12/14 07:40:35;;;;;;;6.85;2.95;;;15.20;99.90;;;;;;4967409;28;20039;-36
2023/12/14 07:43:01;;;;;;;9.23;2.53;;;14.60;99.90;;;;;;4968876;28;20035;-36
2023/12/14 07:45:27;;;;;;;7.55;2.78;;;14.90;99.90;;;;;;4966987;28;20031;-36
2023/12/14 07:47:53;;;;;;;7.13;2.63;;;14.30;99.90;;;;;;4968275;28;20478;-35
2023/12/14 07:50:19;;;;;;;8.13;2.50;;;14.60;99.90;;;;;;4967100;28;20093;-38
2023/12/14 07:52:45;;;;;;;8.75;2.83;;;14.60;99.90;;;;;;4968540;28;20055;-35
2023/12/14 07:55:13;;;;;;;6.03;2.50;;;14.60;99.90;;;;;;4968194;28;20494;-35
2023/12/14 07:57:38;;;;;;;6.07;2.53;;;14.50;99.90;;;;;;4969557;28;20121;-34
2023/12/14 08:00:05;;;;;;;5.78;2.38;;;14.60;99.90;;;;;;4967212;28;20471;-34
2023/12/14 08:02:31;;;;;;;6.60;2.65;;;14.50;99.90;;;;;;4967775;28;20049;-34
2023/12/14 08:04:56;;;;;;;7.82;2.60;;;14.60;99.90;;;;;;4963983;28;20043;-40
2023/12/14 08:07:22;;;;;;;5.40;2.22;;;14.20;99.90;;;;;;4964405;28;20069;-37
2023/12/14 08:09:48;;;;;;;5.93;2.25;;;14.30;99.90;;;;;;4966580;28;20553;-38
2023/12/14 08:12:13;;;;;;;5.43;2.25;;;15.20;99.90;;;;;;4968274;28;20035;-35
2023/12/14 08:14:43;;;;;;;5.80;2.25;;;14.60;99.90;;;;;;4969105;28;20089;-35
2023/12/14 08:17:09;;;;;;;4.65;2.10;;;14.10;99.90;;;;;;4982843;28;20047;-35
2023/12/14 08:19:34;;;;;;;5.65;2.45;;;14.30;99.90;;;;;;4969650;28;20035;-35
2023/12/14 08:22:00;;;;;;;4.97;2.03;;;14.90;99.90;;;;;;4981520;28;20070;-35
2023/12/14 08:24:26;;;;;;;7.07;2.38;;;14.70;99.90;;;;;;4967751;28;20039;-35
2023/12/14 08:26:51;;;;;;;6.80;2.08;;;14.40;99.90;;;;;;4913188;28;20265;-35
2023/12/14 08:29:17;;;;;;;5.68;2.10;;;14.20;99.90;;;;;;4968545;28;20034;-37
2023/12/14 08:31:42;;;;;;;7.10;2.50;;;15.10;99.90;;;;;;4968454;28;20117;-35
2023/12/14 08:34:08;;;;;;;7.10;2.92;;;14.70;99.90;;;;;;4970048;28;20046;-38
2023/12/14 08:36:34;;;;;;;5.50;2.10;;;14.90;99.90;;;;;;4966850;28;20066;-35
2023/12/14 08:39:00;;;;;;;6.28;2.10;;;14.50;99.90;;;;;;4970545;28;20425;-35
2023/12/14 08:41:25;;;;;;;5.72;2.00;;;14.20;99.90;;;;;;4972184;28;20046;-35
2023/12/14 08:43:51;;;;;;;6.28;2.40;;;14.50;99.90;;;;;;4972823;28;20031;-35
2023/12/14 08:46:16;;;;;;;5.20;1.80;;;14.50;99.90;;;;;;4971288;28;20041;-37
2023/12/14 08:48:42;;;;;;;6.20;2.05;;;14.40;99.90;;;;;;4972027;28;20027;-36
2023/12/14 08:51:07;;;;;;;6.18;1.80;;;14.80;99.90;;;;;;4968152;28;20047;-35
2023/12/14 08:53:33;;;;;;;5.32;1.85;;;14.30;99.90;;;;;;4972634;28;20126;-34
2023/12/14 08:55:59;;;;;;;5.30;1.70;;;14.50;99.90;;;;;;4970091;28;20042;-35
2023/12/14 08:58:24;;;;;;;4.88;2.03;;;14.80;99.90;;;;;;4970624;28;20047;-36
2023/12/14 09:00:53;;;;;;;5.22;2.35;;;14.60;99.90;;;;;;4972650;28;20125;-37
2023/12/14 09:03:19;;;;;;;6.53;2.15;;;14.90;99.90;;;;;;4969104;28;20098;-35
2023/12/14 09:05:45;;;;;;;5.28;2.20;;;14.80;99.90;;;;;;4973020;28;20058;-37
2023/12/14 09:08:11;;;;;;;6.10;1.98;;;14.30;99.90;;;;;;4971382;28;20506;-36
2023/12/14 09:10:38;;;;;;;4.75;1.90;;;14.30;99.90;;;;;;4972327;28;20129;-34
2023/12/14 09:13:04;;;;;;;5.25;1.70;;;15.00;99.90;;;;;;4970528;28;20537;-38
2023/12/14 09:15:33;;;;;;;6.57;2.35;;;14.40;99.90;;;;;;4971754;28;20042;-35
2023/12/14 09:17:59;;;;;;;5.68;2.20;;;14.60;99.90;;;;;;4971892;28;20537;-41
2023/12/14 09:20:25;;;;;;;11.95;2.78;;;14.40;99.90;;;;;;4970814;28;20042;-35
2023/12/14 09:22:51;;;;;;;5.35;2.05;;;14.50;99.90;;;;;;4971125;28;20034;-35
2023/12/14 09:25:18;;;;;;;5.03;2.15;;;14.20;99.90;;;;;;4982329;28;20051;-37
2023/12/14 09:27:43;;;;;;;5.25;2.05;;;14.70;99.90;;;;;;4972636;28;20089;-36
2023/12/14 09:30:10;;;;;;;4.90;2.15;;;14.50;99.90;;;;;;4971082;28;20122;-35
2023/12/14 09:32:36;;;;;;;5.38;2.22;;;14.20;99.90;;;;;;4972556;28;20039;-35
2023/12/14 09:35:02;;;;;;;5.85;2.35;;;14.50;99.90;;;;;;4970746;28;20047;-36
2023/12/14 09:37:28;;;;;;;6.60;2.35;;;14.10;99.90;;;;;;4970485;28;20043;-36
2023/12/14 09:39:53;;;;;;;6.45;2.13;;;14.30;99.90;;;;;;4969085;28;20568;-35
2023/12/14 09:42:20;;;;;;;5.90;2.38;;;14.40;99.90;;;;;;4969005;28;22192;-37
2023/12/14 09:44:48;;;;;;;5.45;2.10;;;14.80;99.90;;;;;;4970021;28;20031;-35
2023/12/14 09:47:14;;;;;;;4.97;1.90;;;14.60;99.90;;;;;;4970198;28;20442;-40
2023/12/14 09:49:42;;;;;;;5.93;2.50;;;14.30;99.90;;;;;;4979848;28;20035;-35
2023/12/14 09:52:09;;;;;;;5.28;2.03;;;14.80;99.90;;;;;;4967039;28;20458;-36
2023/12/14 09:54:34;;;;;;;5.75;2.08;;;14.80;99.90;;;;;;4969416;28;20255;-35
2023/12/14 09:57:00;;;;;;;6.15;2.08;;;14.50;99.90;;;;;;4970873;28;20043;-37
2023/12/14 09:59:25;;;;;;;6.00;2.08;;;14.30;99.90;;;;;;4970595;28;20035;-35
2023/12/14 10:01:51;;;;;;;6.95;2.03;;;14.20;99.90;;;;;;4971224;28;20039;-34
2023/12/14 10:04:19;;;;;;;4.63;1.90;;;14.40;99.90;;;;;;4970226;28;20043;-38
2023/12/14 10:06:47;;;;;;;5.88;2.25;;;14.10;99.90;;;;;;4971310;28;20035;-38
2023/12/14 10:09:15;;;;;;;6.78;2.65;;;14.40;99.90;;;;;;4969129;28;20049;-37
2023/12/14 10:11:42;;;;;;;4.88;1.75;;;14.80;99.90;;;;;;4969905;28;20138;-35
2023/12/14 10:14:25;;;;;;;4.90;1.83;;;14.30;99.90;;;;;;4970903;28;20130;-37
2023/12/14 10:16:52;;;;;;;5.75;1.85;;;14.30;99.90;;;;;;4968365;28;20078;-36
2023/12/14 10:19:18;;;;;;;5.00;2.00;;;15.40;99.90;;;;;;4970395;28;20530;-37
2023/12/14 10:21:46;;;;;;;5.45;2.00;;;14.70;99.90;;;;;;4969574;28;20042;-37
2023/12/14 10:24:13;;;;;;;7.03;2.20;;;14.40;99.90;;;;;;4969278;28;20047;-35
2023/12/14 10:26:38;;;;;;;4.93;2.03;;;14.70;99.90;;;;;;4980994;28;20142;-37
2023/12/14 10:29:04;;;;;;;7.22;2.30;;;14.60;99.90;;;;;;4965675;28;20034;-37
2023/12/14 10:31:37;;;;;;;5.10;1.90;;;14.40;99.90;;;;;;4966706;28;20038;-36
2023/12/14 10:34:06;;;;;;;4.95;2.03;;;14.50;99.90;;;;;;4985370;28;20113;-37
2023/12/14 10:36:33;;;;;;;5.72;2.00;;;14.70;99.90;;;;;;4970254;28;20047;-36
2023/12/14 10:39:00;;;;;;;5.05;2.08;;;13.90;99.90;;;;;;4967903;28;20046;-35
2023/12/14 10:41:26;;;;;;;6.05;2.22;;;14.60;99.90;;;;;;4964143;28;20088;-36
2023/12/14 10:43:55;;;;;;;5.40;2.00;;;14.60;99.90;;;;;;4969172;28;20478;-37
2023/12/14 10:46:22;;;;;;;5.28;2.05;;;14.60;99.90;;;;;;4969105;28;20532;-39
2023/12/14 10:48:50;;;;;;;4.68;1.90;;;14.80;99.90;;;;;;4968997;28;20065;-35
2023/12/14 10:51:18;;;;;;;4.55;1.80;;;14.50;99.90;;;;;;4964656;28;20491;-35
2023/12/14 10:53:47;;;;;;;5.88;1.98;;;14.80;99.90;;;;;;4970166;28;20532;-34
2023/12/14 10:56:13;;;;;;;6.07;2.20;;;14.50;99.90;;;;;;4969012;28;20391;-35
2023/12/14 10:58:51;;;;;;;4.82;2.25;;;14.80;99.90;;;;;;4967771;28;20039;-38
2023/12/14 11:01:19;;;;;;;5.95;1.90;;;14.40;99.90;;;;;;4966611;28;20042;-37
2023/12/14 11:03:45;;;;;;;4.95;2.00;;;14.70;99.90;;;;;;4970175;28;20039;-35
2023/12/14 11:06:30;;;;;;;5.15;2.13;;;14.30;99.90;;;;;;4966975;28;20054;-36
2023/12/14 11:09:00;;;;;;;5.72;2.17;;;14.80;99.90;;;;;;4966251;28;20043;-35
2023/12/14 11:11:30;;;;;;;5.22;2.17;;;14.10;99.90;;;;;;4969125;28;20039;-35
2023/12/14 11:13:56;;;;;;;5.20;2.10;;;14.30;99.90;;;;;;4970310;28;20042;-35
2023/12/14 11:16:22;;;;;;;5.32;2.42;;;14.60;99.90;;;;;;4968179;28;20057;-38
2023/12/14 11:18:48;;;;;;;5.85;2.00;;;14.20;99.90;;;;;;4966610;28;20046;-36
2023/12/14 11:21:24;;;;;;;5.75;2.40;;;14.80;99.90;;;;;;4968692;28;20043;-41
2023/12/14 11:23:50;;;;;;;6.10;2.40;;;14.70;99.90;;;;;;4977214;28;20093;-35
2023/12/14 11:26:24;;;;;;;5.38;2.25;;;14.60;99.90;;;;;;4966116;28;20178;-35
2023/12/14 11:28:50;;;;;;;6.63;2.33;;;14.40;99.90;;;;;;4970128;28;20429;-35
2023/12/14 11:31:16;;;;;;;5.20;2.20;;;14.50;99.90;;;;;;4966670;28;20049;-36
2023/12/14 11:33:44;;;;;;;6.65;2.40;;;14.30;99.90;;;;;;4967965;28;20046;-35
2023/12/14 11:36:12;;;;;;;5.95;2.85;;;14.40;99.90;;;;;;4964798;28;20263;-34
2023/12/14 11:38:37;;;;;;;4.85;2.00;;;14.50;99.90;;;;;;4968396;28;20050;-40
2023/12/14 11:41:03;;;;;;;7.25;3.38;;;14.10;99.90;;;;;;4966417;28;20043;-38
2023/12/14 11:43:29;;;;;;;4.97;2.30;;;14.10;99.90;;;;;;4968640;28;20035;-34
2023/12/14 11:45:58;;;;;;;5.35;2.47;;;14.80;99.90;;;;;;4966850;28;20118;-36
2023/12/14 11:48:24;;;;;;;4.95;2.08;;;14.50;99.90;;;;;;4966838;28;20041;-36
2023/12/14 11:50:49;;;;;;;5.63;2.50;;;14.20;99.90;;;;;;4980180;28;20034;-34
2023/12/14 11:53:15;;;;;;;5.93;2.50;;;14.40;99.90;;;;;;4966264;28;20050;-36
2023/12/14 11:55:42;;;;;;;6.40;2.90;;;14.20;99.90;;;;;;4966731;28;20101;-35
2023/12/14 11:58:11;;;;;;;7.32;3.20;;;15.00;99.90;;;;;;4967516;28;20058;-35
2023/12/14 12:00:39;;;;;;;6.70;3.33;;;14.30;99.90;;;;;;4967581;28;21528;-34
2023/12/14 12:03:21;;;;;;;7.05;3.83;;;14.30;99.90;;;;;;4968532;28;20043;-35
2023/12/14 12:05:47;;;;;;;6.45;3.03;;;14.40;99.90;;;;;;4964832;28;20038;-37
2023/12/14 12:08:14;;;;;;;5.97;3.20;;;14.30;99.90;;;;;;4968936;28;20042;-34
2023/12/14 12:10:41;;;;;;;7.47;3.72;;;14.00;99.90;;;;;;4968018;28;20034;-37
2023/12/14 12:13:11;;;;;;;7.35;3.45;;;14.00;99.90;;;;;;4968690;28;20042;-35
2023/12/14 12:15:37;;;;;;;6.35;2.92;;;14.10;99.90;;;;;;4968629;28;20082;-35
2023/12/14 12:18:08;;;;;;;9.30;3.28;;;14.20;99.90;;;;;;4980771;28;20081;-38
2023/12/14 12:20:34;;;;;;;6.80;2.80;;;14.00;99.90;;;;;;4968810;28;20078;-34
2023/12/14 12:23:01;;;;;;;6.60;2.70;;;13.80;99.90;;;;;;4963686;28;20454;-34
2023/12/14 12:25:27;;;;;;;5.85;3.10;;;13.80;99.90;;;;;;4968303;28;20042;-37
2023/12/14 12:27:57;;;;;;;6.93;3.20;;;13.90;99.90;;;;;;4969731;28;20034;-37
2023/12/14 12:30:23;;;;;;;7.70;3.33;;;13.90;99.90;;;;;;4968159;28;20533;-38
2023/12/14 12:32:52;;;;;;;6.93;3.17;;;13.50;99.90;;;;;;4969209;28;20050;-37
2023/12/14 12:35:23;;;;;;;6.05;2.75;;;14.70;99.90;;;;;;4949982;28;20573;-36
2023/12/14 12:37:53;;;;;;;6.60;2.72;;;14.10;99.90;;;;;;4966159;28;20077;-37
2023/12/14 12:40:20;;;;;;;6.47;2.65;;;13.50;99.90;;;;;;4965993;28;20047;-35